Detalii statie RECOND [00001D02]

Toti senzorii

Date Temperatura solului [C]Precipitatii [mm]Voltaj baterie [mV]Leaf Wetness [Min]HC Air temperature [C]HC Relative humidity [%]Punctul de roua [C]
medieminmaxsumaultimatimpmedieminmaxmediemediemin
2017-06-25 06:00:00 0 6972 17.23 16.57 18.19 0 0 0
2017-06-25 07:00:00 0 7080 19.4 18.19 21.1 0 0 0
2017-06-25 08:00:00 0 7304 22.42 21.19 23.94 0 0 0
2017-06-25 09:00:00 0 7342 25.36 24.29 26.7 0 0 0
2017-06-25 10:00:00 0 7342 27.66 26.27 29.81 0 0 0
2017-06-25 11:00:00 0 7342 29.86 28.67 31.49 0 0 0
2017-06-25 12:00:00 0 7332 30.96 30.64 31.84 0 0 0
2017-06-25 13:00:00 0 7342 31.53 31.01 32.18 0 0 0
2017-06-25 14:00:00 0 7324 31.79 31.01 32.84 0 0 0
2017-06-25 15:00:00 0 7324 31.47 31.14 31.72 0 0 0
2017-06-25 16:00:00 0 7314 33.17 31.91 34.23 0 0 0
2017-06-25 17:00:00 0 7080 33.01 32.32 33.85 0 0
2017-06-25 18:00:00 0 7020 31.45 31.34 31.54 0 0
2017-06-25 19:00:00 0 7010 30.85 29.88 31.52 0 0 0
2017-06-25 20:00:00 0 6992 28.05 26.28 29.58 0 0 0
2017-06-25 21:00:00 0 6972 24.73 23.81 26.18 0 0 0
2017-06-25 22:00:00 0 6972 23.31 22.5 23.98 0 0 0
2017-06-25 23:00:00 0 6952 22.17 21.68 22.72 0 0 0
2017-06-26 00:00:00 0 6952 21.1 20.18 21.88 0 0 0
2017-06-26 01:00:00 0 6942 20.71 19.79 21.63 0 0 0
2017-06-26 02:00:00 0 6942 19.31 18.79 19.76 0 0 0
2017-06-26 03:00:00 0 6942 18.48 18.11 18.85 0 0 0
2017-06-26 04:00:00 0 6942 18.04 17.74 18.42 0 0 0
2017-06-26 05:00:00 0 6932 17.95 17.68 18.2 0 0 0
2017-06-26 06:00:00 0 6972 18.32 17.76 19.09 0 0 0
2017-06-26 07:00:00 0 7070 20.5 19.26 22.97 0 0 0
2017-06-26 08:00:00 0 7274 24.89 23.37 26.49 0 0 0
2017-06-26 09:00:00 0 7342 28.21 26.86 29.87 0 0 0
2017-06-26 10:00:00 0 7332 30.98 30.07 32.03 0 0 0
2017-06-26 11:00:00 0 7332 32.65 31.06 34.32 0 0 0
2017-06-26 12:00:00 0 7332 34.2 33.19 35.41 0 0 0
2017-06-26 13:00:00 0 7332 34.6 33.99 35.16 0 0 0
2017-06-26 14:00:00 0 7324 33.64 32.86 34.73 0 0
2017-06-26 15:00:00 0 7216 33.17 32.76 33.41 0 0 0
2017-06-26 16:00:00 0 7314 34.71 33.3 36.12 0 0 0
2017-06-26 17:00:00 0 7020 34.31 32 36.09 0 0 0
2017-06-26 18:00:00 0 7070 31.52 30.87 32.74 0 0 0
2017-06-26 19:00:00 0 7324 32.51 30.94 33.51 0 0 0
2017-06-26 20:00:00 0 6982 28.79 27.63 30.62 0 0 0
2017-06-26 21:00:00 0 6972 26.79 26.17 27.66 0 0 0
2017-06-26 22:00:00 0 6972 25.3 25.04 26.05 0 0 0
2017-06-26 23:00:00 0 6962 24.21 23.41 24.91 0 0 0
2017-06-27 00:00:00 0 6962 22.85 22.53 23.14 0 0 0
2017-06-27 01:00:00 0 6952 21.6 20.72 22.84 0 0 0
2017-06-27 02:00:00 0 6942 21.49 21.03 22.03 0 0 0
2017-06-27 03:00:00 0 6942 20.41 20.02 20.94 0 0 0
2017-06-27 04:00:00 0 6932 19.52 19.16 20.03 0 0 0
2017-06-27 05:00:00 0 6942 19.41 19.06 19.75 0 0 0